Time,TemperatureF,DewpointF,PressureIn,WindDirection,WindDirectionDegrees,WindSpeedMPH,WindSpeedGustMPH,Humidity,HourlyPrecipIn,Conditions,Clouds,dailyrainin,SolarRadiationWatts/m^2,SoftwareType,DateUTC
2013-07-06 00:10:00,50.0,49.0,29.75,West,270,0.0,0.0,97,-99.99,,,-99.99,0.000000,,2013-07-06 07:10:00,
2013-07-06 00:22:00,50.0,49.0,29.74,West,270,0.0,0.0,96,-99.99,,,-99.99,0.000000,,2013-07-06 07:22:00,
2013-07-06 00:43:00,50.0,49.0,29.75,West,270,0.0,0.0,97,-99.99,,,-99.99,0.000000,,2013-07-06 07:43:00,
2013-07-06 00:52:00,50.0,49.0,29.75,West,270,0.0,0.0,97,-99.99,,,-99.99,0.000000,,2013-07-06 07:52:00,
2013-07-06 01:00:00,50.0,49.0,29.75,West,270,0.0,0.0,97,-99.99,,,-99.99,0.000000,,2013-07-06 08:00:00,
2013-07-06 01:02:00,50.0,49.0,29.75,West,270,0.0,0.0,97,-99.99,,,-99.99,0.000000,,2013-07-06 08:02:00,
2013-07-06 01:20:00,50.0,49.0,29.75,West,270,0.0,0.0,98,-99.99,,,-99.99,0.000000,,2013-07-06 08:20:00,
2013-07-06 01:54:00,50.0,49.0,29.75,West,270,0.0,0.0,97,-99.99,,,-99.99,0.000000,,2013-07-06 08:54:00,
2013-07-06 02:11:00,50.0,49.0,29.75,West,270,0.0,0.0,98,-99.99,,,-99.99,0.000000,,2013-07-06 09:11:00,
2013-07-06 02:50:00,49.0,49.0,29.75,West,270,0.0,0.0,98,-99.99,,,-99.99,0.000000,,2013-07-06 09:50:00,
2013-07-06 02:52:00,49.0,49.0,29.74,West,270,0.0,0.0,98,-99.99,,,-99.99,0.000000,,2013-07-06 09:52:00,
2013-07-06 03:02:00,49.0,49.0,29.74,West,270,0.0,0.0,98,-99.99,,,-99.99,0.000000,,2013-07-06 10:02:00,
2013-07-06 03:10:00,49.0,49.0,29.75,West,270,0.0,0.0,98,-99.99,,,-99.99,0.000000,,2013-07-06 10:10:00,
2013-07-06 03:11:00,49.0,49.0,29.74,West,270,0.0,0.0,98,-99.99,,,-99.99,0.000000,,2013-07-06 10:11:00,
2013-07-06 03:22:00,49.0,49.0,29.75,West,270,0.0,0.0,98,-99.99,,,-99.99,0.000000,,2013-07-06 10:22:00,
2013-07-06 03:30:00,49.0,49.0,29.76,West,270,0.0,0.0,99,-99.99,,,-99.99,0.000000,,2013-07-06 10:30:00,
2013-07-06 03:33:00,49.0,49.0,29.75,West,270,0.0,0.0,98,-99.99,,,-99.99,0.000000,,2013-07-06 10:33:00,
2013-07-06 04:01:00,49.0,49.0,29.75,West,270,0.0,0.0,98,-99.99,,,-99.99,0.000000,,2013-07-06 11:01:00,
2013-07-06 04:30:00,49.0,49.0,29.77,West,270,0.0,0.0,99,-99.99,,,-99.99,0.000000,,2013-07-06 11:30:00,
2013-07-06 04:52:00,49.0,49.0,29.76,West,270,0.0,0.0,99,-99.99,,,-99.99,0.000000,,2013-07-06 11:52:00,
2013-07-06 05:01:00,49.0,49.0,29.76,West,270,0.0,0.0,99,-99.99,,,-99.99,0.000000,,2013-07-06 12:01:00,
2013-07-06 05:11:00,49.0,49.0,29.76,West,270,0.0,0.0,99,-99.99,,,-99.99,0.000000,,2013-07-06 12:11:00,
2013-07-06 05:52:00,49.0,49.0,29.77,West,270,0.0,0.0,99,-99.99,,,-99.99,0.000000,,2013-07-06 12:52:00,
2013-07-06 06:00:00,49.0,49.0,29.78,West,270,0.0,0.0,99,-99.99,,,-99.99,0.000000,,2013-07-06 13:00:00,
2013-07-06 06:22:00,49.0,49.0,29.77,West,270,0.0,0.0,99,-99.99,,,-99.99,0.000000,,2013-07-06 13:22:00,
2013-07-06 06:33:00,49.0,49.0,29.78,West,270,0.0,0.0,99,-99.99,,,-99.99,0.000000,,2013-07-06 13:33:00,
2013-07-06 06:43:00,49.0,49.0,29.78,West,270,0.0,0.0,99,-99.99,,,-99.99,0.000000,,2013-07-06 13:43:00,
2013-07-06 07:53:00,49.0,49.0,29.78,West,270,0.0,0.0,99,-99.99,,,-99.99,0.000000,,2013-07-06 14:53:00,
2013-07-06 08:02:00,49.0,49.0,29.77,West,270,0.0,0.0,99,-99.99,,,-99.99,0.000000,,2013-07-06 15:02:00,
2013-07-06 08:12:00,49.0,49.0,29.77,West,270,0.0,0.0,99,-99.99,,,-99.99,0.000000,,2013-07-06 15:12:00,
2013-07-06 08:22:00,49.0,49.0,29.77,West,270,0.0,0.0,99,-99.99,,,-99.99,0.000000,,2013-07-06 15:22:00,
2013-07-06 08:33:00,49.0,49.0,29.77,West,270,0.0,0.0,99,-99.99,,,-99.99,0.000000,,2013-07-06 15:33:00,
2013-07-06 08:40:00,49.0,49.0,29.80,West,270,0.0,0.0,99,-99.99,,,-99.99,0.000000,,2013-07-06 15:40:00,
2013-07-06 08:52:00,49.0,49.0,29.78,West,270,0.0,0.0,99,-99.99,,,-99.99,0.000000,,2013-07-06 15:52:00,
2013-07-06 09:00:00,49.0,49.0,29.81,West,270,0.0,0.0,99,-99.99,,,-99.99,0.000000,,2013-07-06 16:00:00,
2013-07-06 09:14:00,49.0,49.0,29.79,West,270,0.0,0.0,99,-99.99,,,-99.99,0.000000,,2013-07-06 16:14:00,
2013-07-06 09:23:00,49.0,49.0,29.79,West,270,0.0,0.0,99,-99.99,,,-99.99,0.000000,,2013-07-06 16:23:00,
2013-07-06 10:10:00,50.0,50.0,29.82,West,269,0.0,0.0,99,-99.99,,,-99.99,0.000000,,2013-07-06 17:10:00,
2013-07-06 10:38:00,49.0,49.0,29.81,West,269,0.0,0.0,99,-99.99,,,-99.99,0.000000,,2013-07-06 17:38:00,
2013-07-06 11:05:00,50.0,50.0,29.82,West,269,0.0,0.0,99,-99.99,,,-99.99,0.000000,,2013-07-06 18:05:00,
2013-07-06 11:28:00,50.0,50.0,29.82,West,269,0.0,0.0,99,-99.99,,,-99.99,0.000000,,2013-07-06 18:28:00,
2013-07-06 12:08:00,50.0,50.0,29.82,West,269,0.0,0.0,99,-99.99,,,-99.99,0.000000,,2013-07-06 19:08:00,
2013-07-06 12:17:00,50.0,50.0,29.82,West,269,0.0,0.0,99,-99.99,,,-99.99,0.000000,,2013-07-06 19:17:00,
2013-07-06 12:37:00,49.0,49.0,29.82,West,269,0.0,0.0,99,-99.99,,,-99.99,249.000000,,2013-07-06 19:37:00,
2013-07-06 12:54:00,50.0,50.0,29.82,West,269,0.0,0.0,99,-99.99,,,-99.99,304.000000,,2013-07-06 19:54:00,
2013-07-06 13:39:00,50.0,50.0,29.82,West,269,0.0,0.0,99,-99.99,,,-99.99,535.000000,,2013-07-06 20:39:00,
2013-07-06 14:06:00,50.0,50.0,29.82,West,269,0.0,0.0,99,-99.99,,,-99.99,815.000000,,2013-07-06 21:06:00,
2013-07-06 14:14:00,51.0,51.0,29.83,West,269,0.0,0.0,99,-99.99,,,-99.99,942.000000,,2013-07-06 21:14:00,
2013-07-06 14:20:00,52.0,52.0,29.83,West,268,0.0,0.0,99,-99.99,,,-99.99,953.000000,,2013-07-06 21:20:00,
2013-07-06 14:39:00,51.0,51.0,29.83,West,269,0.0,0.0,99,-99.99,,,-99.99,1015.000000,,2013-07-06 21:39:00,
2013-07-06 14:57:00,52.0,52.0,29.83,West,268,0.0,0.0,99,-99.99,,,-99.99,980.000000,,2013-07-06 21:57:00,
2013-07-06 15:07:00,52.0,52.0,29.83,West,268,0.0,0.0,99,-99.99,,,-99.99,976.000000,,2013-07-06 22:07:00,
2013-07-06 15:20:00,52.0,51.0,29.82,West,268,0.0,0.0,97,-99.99,,,-99.99,565.000000,,2013-07-06 22:20:00,
2013-07-06 15:38:00,52.0,52.0,29.82,West,268,0.0,0.0,98,-99.99,,,-99.99,915.000000,,2013-07-06 22:38:00,
2013-07-06 15:57:00,52.0,51.0,29.82,West,268,0.0,0.0,97,-99.99,,,-99.99,765.000000,,2013-07-06 22:57:00,
2013-07-06 16:40:00,52.0,50.0,29.80,West,269,0.0,0.0,93,-99.99,,,-99.99,1106.000000,,2013-07-06 23:40:00,
2013-07-06 16:57:00,52.0,50.0,29.81,West,268,0.0,0.0,93,-99.99,,,-99.99,752.000000,,2013-07-06 23:57:00,
2013-07-06 17:00:00,52.0,50.0,29.80,West,269,0.0,0.0,93,-99.99,,,-99.99,1059.000000,,2013-07-07 00:00:00,
2013-07-06 18:06:00,52.0,50.0,29.80,West,269,0.0,0.0,93,-99.99,,,-99.99,1049.000000,,2013-07-07 01:06:00,
2013-07-06 18:20:00,51.0,50.0,29.79,West,269,0.0,0.0,94,-99.99,,,-99.99,1296.000000,,2013-07-07 01:20:00,
2013-07-06 18:37:00,52.0,50.0,29.79,West,269,0.0,0.0,93,-99.99,,,-99.99,,,2013-07-07 01:37:00,
2013-07-06 18:56:00,52.0,50.0,29.79,West,269,0.0,0.0,93,-99.99,,,-99.99,1273.000000,,2013-07-07 01:56:00,
2013-07-06 19:06:00,51.0,49.0,29.79,West,269,0.0,0.0,94,-99.99,,,-99.99,1298.000000,,2013-07-07 02:06:00,
2013-07-06 19:10:00,50.0,49.0,29.79,West,269,0.0,0.0,96,-99.99,,,-99.99,,,2013-07-07 02:10:00,
2013-07-06 19:16:00,51.0,50.0,29.79,West,269,0.0,0.0,94,-99.99,,,-99.99,1296.000000,,2013-07-07 02:16:00,
2013-07-06 19:35:00,50.0,49.0,29.79,West,269,0.0,0.0,95,-99.99,,,-99.99,,,2013-07-07 02:35:00,
2013-07-06 19:54:00,50.0,49.0,29.79,West,269,0.0,0.0,96,-99.99,,,-99.99,,,2013-07-07 02:54:00,
2013-07-06 20:26:00,50.0,49.0,29.79,West,269,0.0,0.0,97,-99.99,,,-99.99,1327.000000,,2013-07-07 03:26:00,
2013-07-06 20:30:00,50.0,49.0,29.79,West,269,0.0,0.0,98,-99.99,,,-99.99,1033.000000,,2013-07-07 03:30:00,
2013-07-06 21:01:00,50.0,49.0,29.79,West,269,0.0,0.0,97,-99.99,,,-99.99,1134.000000,,2013-07-07 04:01:00,
2013-07-06 21:10:00,49.0,49.0,29.80,West,269,0.0,0.0,98,-99.99,,,-99.99,981.000000,,2013-07-07 04:10:00,
2013-07-06 21:11:00,50.0,49.0,29.79,West,269,0.0,0.0,97,-99.99,,,-99.99,1084.000000,,2013-07-07 04:11:00,
2013-07-06 21:21:00,50.0,49.0,29.79,West,269,0.0,0.0,98,-99.99,,,-99.99,1033.000000,,2013-07-07 04:21:00,
2013-07-06 21:51:00,49.0,49.0,29.79,West,269,0.0,0.0,98,-99.99,,,-99.99,952.000000,,2013-07-07 04:51:00,
2013-07-06 22:01:00,49.0,49.0,29.80,West,269,0.0,0.0,98,-99.99,,,-99.99,981.000000,,2013-07-07 05:01:00,
2013-07-06 22:20:00,49.0,49.0,29.82,West,269,0.0,0.0,98,-99.99,,,-99.99,774.000000,,2013-07-07 05:20:00,
2013-07-06 22:21:00,49.0,49.0,29.80,West,269,0.0,0.0,98,-99.99,,,-99.99,987.000000,,2013-07-07 05:21:00,
2013-07-06 22:31:00,49.0,49.0,29.80,West,269,0.0,0.0,98,-99.99,,,-99.99,888.000000,,2013-07-07 05:31:00,
2013-07-06 22:41:00,49.0,49.0,29.81,West,269,0.0,0.0,98,-99.99,,,-99.99,877.000000,,2013-07-07 05:41:00,
2013-07-06 22:51:00,49.0,49.0,29.81,West,269,0.0,0.0,98,-99.99,,,-99.99,829.000000,,2013-07-07 05:51:00,
2013-07-06 23:01:00,49.0,49.0,29.82,West,269,0.0,0.0,98,-99.99,,,-99.99,795.000000,,2013-07-07 06:01:00,
2013-07-06 23:11:00,49.0,49.0,29.82,West,269,0.0,0.0,98,-99.99,,,-99.99,774.000000,,2013-07-07 06:11:00,
2013-07-06 23:32:00,49.0,49.0,29.81,West,269,0.0,0.0,98,-99.99,,,-99.99,702.000000,,2013-07-07 06:32:00,
2013-07-06 23:52:00,49.0,49.0,29.81,West,269,0.0,0.0,98,-99.99,,,-99.99,576.000000,,2013-07-07 06:52:00,